Wiconisco, Pennsylvania
Current Conditions -  °F | °C
As of 10:58 PM on Friday 31 Oct 2014 (Local Time) from KMUI Reporting Station
Overcast Overcast  
Wind Chill: 47°   Ceiling: 6000
Heat Index: 47°   Visibility: 10mi
Dew Point: 35°   Wind: 3mph
Humidity: 63%   Direction: 20°NNE
Pressure: 29.87"   Gusts: NA
Location:  40.57°N, 76.69°W
Report Text: KMUI 010258Z AUTO 02003KT 10SM SCT050 OVC060 08/02 A2987 RMK AO2 SLP120 T00830017 57009 $
Loading
Personal Weather Stations






























Interactive Weather Map
Tropical Storm Tracking
New forecast layout! Learn more

10-Day Weather Forecast

Advertisements
Track Severe Weather on mobile